createdAt,value
2023-04-18T00:05:02.629Z,67.07
2023-04-18T00:10:07.532Z,62.24
2023-04-18T00:15:11.905Z,54.83
2023-04-18T00:20:15.323Z,55.56
2023-04-18T00:25:18.353Z,58.00
2023-04-18T00:30:21.622Z,67.40
2023-04-18T00:35:25.278Z,66.24
2023-04-18T00:40:28.349Z,63.55
2023-04-18T00:45:31.906Z,60.90
2023-04-18T00:50:37.823Z,54.28
2023-04-18T00:55:41.722Z,53.56
2023-04-18T01:00:44.771Z,56.10
2023-04-18T01:05:47.976Z,60.35
2023-04-18T01:10:51.397Z,71.66
2023-04-18T01:15:57.679Z,70.22
2023-04-18T01:21:01.195Z,63.98
2023-04-18T01:26:04.441Z,60.30
2023-04-18T01:31:07.521Z,54.37
2023-04-18T01:36:10.715Z,55.17
2023-04-18T01:41:13.818Z,65.18
2023-04-18T01:46:17.177Z,64.55
2023-04-18T01:51:20.340Z,60.44
2023-04-18T01:56:23.549Z,53.46
2023-04-18T02:01:26.966Z,53.23
2023-04-18T02:06:31.110Z,56.87
2023-04-18T02:11:34.193Z,68.81
2023-04-18T02:16:37.333Z,68.75
2023-04-18T02:21:42.106Z,61.53
2023-04-18T02:26:45.156Z,54.64
2023-04-18T02:31:48.408Z,55.77
2023-04-18T02:36:51.582Z,59.81
2023-04-18T02:41:54.588Z,68.01
2023-04-18T02:46:57.778Z,66.93
2023-04-18T02:52:01.003Z,63.15
2023-04-18T02:57:04.210Z,60.18
2023-04-18T03:02:07.362Z,55.39
2023-04-18T03:07:10.522Z,56.62
2023-04-18T03:12:13.557Z,61.09
2023-04-18T03:17:16.776Z,69.24
2023-04-18T03:22:20.039Z,68.01
2023-04-18T03:27:23.089Z,63.14
2023-04-18T03:32:26.169Z,60.32
2023-04-18T03:37:29.385Z,55.19
2023-04-18T03:42:32.473Z,59.27
2023-04-18T03:47:35.744Z,67.11
2023-04-18T03:52:38.985Z,66.62
2023-04-18T03:57:42.006Z,62.66
2023-04-18T04:02:45.181Z,60.20
2023-04-18T04:07:48.634Z,53.68
2023-04-18T04:12:51.771Z,54.29
2023-04-18T04:17:54.847Z,58.23
2023-04-18T04:22:59.283Z,67.48
2023-04-18T04:28:03.004Z,67.71
2023-04-18T04:33:06.884Z,63.16
2023-04-18T04:38:12.539Z,61.10
2023-04-18T04:43:20.805Z,55.26
2023-04-18T04:48:25.026Z,56.80
2023-04-18T04:53:32.551Z,66.37
2023-04-18T04:58:35.887Z,65.36
2023-04-18T05:03:39.057Z,62.91
2023-04-18T05:08:42.173Z,60.86
2023-04-18T05:13:45.582Z,60.17
2023-04-18T05:18:48.789Z,54.91
2023-04-18T05:23:52.041Z,56.81
2023-04-18T05:28:55.621Z,66.77
2023-04-18T05:33:58.629Z,67.95
2023-04-18T05:39:01.759Z,62.90
2023-04-18T05:44:06.046Z,60.18
2023-04-18T05:49:09.212Z,54.65
2023-04-18T05:54:12.920Z,56.24
2023-04-18T05:59:16.326Z,59.90
2023-04-18T06:04:21.351Z,71.75
2023-04-18T06:09:24.672Z,67.52
2023-04-18T06:14:28.909Z,62.25
2023-04-18T06:19:33.440Z,55.34
2023-04-18T06:24:37.612Z,56.64
2023-04-18T06:29:40.897Z,59.94
2023-04-18T06:34:45.035Z,67.38
2023-04-18T06:39:48.248Z,64.45
2023-04-18T06:44:51.434Z,56.65
2023-04-18T06:49:54.629Z,58.14
2023-04-18T06:54:57.948Z,62.32
2023-04-18T07:00:01.057Z,67.99
2023-04-18T07:05:04.984Z,58.98
2023-04-18T07:10:09.952Z,54.71
2023-04-18T07:15:13.046Z,56.54
2023-04-18T07:20:16.366Z,60.11
2023-04-18T07:25:19.553Z,66.59
2023-04-18T07:30:22.865Z,61.28
2023-04-18T07:35:25.978Z,53.22
2023-04-18T07:40:29.185Z,53.50
2023-04-18T07:45:33.649Z,57.15
2023-04-18T07:50:36.732Z,61.80
2023-04-18T07:55:39.853Z,62.64
2023-04-18T08:00:45.000Z,53.15
2023-04-18T08:05:49.230Z,55.71
2023-04-18T08:10:52.341Z,58.09
2023-04-18T08:15:56.164Z,60.53
2023-04-18T08:20:59.253Z,61.88
2023-04-18T08:26:02.358Z,65.20
2023-04-18T08:31:06.109Z,53.66
2023-04-18T08:36:10.154Z,53.27
2023-04-18T08:41:14.470Z,55.83
2023-04-18T08:46:17.672Z,56.83
2023-04-18T08:51:21.819Z,56.49
2023-04-18T08:56:27.555Z,56.40
2023-04-18T09:01:49.670Z,56.65
2023-04-18T09:06:53.531Z,58.22
2023-04-18T09:12:11.440Z,57.47
2023-04-18T09:17:35.919Z,57.67
2023-04-18T09:22:53.647Z,57.54
2023-04-18T09:28:01.333Z,56.41
2023-04-18T09:33:10.060Z,55.88
2023-04-18T09:38:13.216Z,54.21
2023-04-18T09:43:20.938Z,55.00
2023-04-18T09:48:24.022Z,54.52
2023-04-18T09:53:29.148Z,55.17
2023-04-18T09:58:34.598Z,53.23
2023-04-18T10:03:47.439Z,53.05
2023-04-18T10:08:52.843Z,53.84
2023-04-18T10:14:01.437Z,53.74
2023-04-18T10:19:44.401Z,52.71
2023-04-18T10:24:53.800Z,50.53
2023-04-18T10:29:57.274Z,49.22
2023-04-18T10:35:00.791Z,50.56
2023-04-18T10:40:07.181Z,51.76
2023-04-18T10:45:28.717Z,51.54
2023-04-18T10:50:31.854Z,50.49
2023-04-18T10:55:37.029Z,49.62
2023-04-18T11:00:40.415Z,50.02
2023-04-18T11:05:43.647Z,48.49
2023-04-18T11:10:58.639Z,46.73
2023-04-18T11:16:02.660Z,46.76
2023-04-18T11:21:06.240Z,46.93
2023-04-18T11:26:09.337Z,46.17
2023-04-18T11:31:16.319Z,46.46
2023-04-18T11:36:19.443Z,47.57
2023-04-18T11:41:22.754Z,48.36
2023-04-18T11:46:39.082Z,48.01
2023-04-18T11:51:46.404Z,48.68
2023-04-18T11:56:50.000Z,48.10
2023-04-18T12:02:15.473Z,48.45
2023-04-18T12:07:41.054Z,48.14
2023-04-18T12:12:49.411Z,48.29
2023-04-18T12:17:53.028Z,46.64
2023-04-18T12:22:57.987Z,47.10
2023-04-18T12:28:15.232Z,48.30
2023-04-18T12:33:18.287Z,48.98
2023-04-18T12:38:23.713Z,50.42
2023-04-18T12:43:27.171Z,50.43
2023-04-18T12:48:30.264Z,49.30
2023-04-18T12:53:33.314Z,49.70
2023-04-18T12:58:36.376Z,50.01
2023-04-18T13:03:40.051Z,49.76
2023-04-18T13:08:43.307Z,46.95
2023-04-18T13:13:47.137Z,45.81
2023-04-18T13:18:50.146Z,45.80
2023-04-18T13:23:53.180Z,46.91
2023-04-18T13:28:56.659Z,49.16
2023-04-18T13:34:00.203Z,49.80
2023-04-18T13:39:04.935Z,50.93
2023-04-18T13:44:08.534Z,51.56
2023-04-18T13:49:11.759Z,52.39
2023-04-18T13:54:16.647Z,53.36
2023-04-18T13:59:20.207Z,54.30
2023-04-18T14:04:24.687Z,55.15
2023-04-18T14:09:28.267Z,56.07
2023-04-18T14:14:31.591Z,56.33
2023-04-18T14:19:35.113Z,56.38
2023-04-18T14:24:38.199Z,56.15
2023-04-18T14:29:41.377Z,54.55
2023-04-18T14:34:44.692Z,54.55
2023-04-18T14:39:48.758Z,55.06
2023-04-18T14:44:51.993Z,55.74
2023-04-18T14:49:55.079Z,56.61
2023-04-18T14:54:58.280Z,56.88
2023-04-18T15:00:01.646Z,57.05
2023-04-18T15:05:07.457Z,57.05
2023-04-18T15:10:12.883Z,57.22
2023-04-18T15:15:16.425Z,57.52
2023-04-18T15:20:21.318Z,57.64
2023-04-18T15:25:26.633Z,58.17
2023-04-18T15:30:29.769Z,58.75
2023-04-18T15:35:33.156Z,59.52
2023-04-18T15:40:36.809Z,59.64
2023-04-18T15:45:40.268Z,60.25
2023-04-18T15:50:43.404Z,60.44
2023-04-18T15:55:47.146Z,60.82
2023-04-18T16:00:52.015Z,60.95
2023-04-18T16:05:55.071Z,61.36
2023-04-18T16:10:58.271Z,61.46
2023-04-18T16:16:01.513Z,68.09
2023-04-18T16:21:05.143Z,61.50
2023-04-18T16:26:08.413Z,52.83
2023-04-18T16:31:11.651Z,54.24
2023-04-18T16:36:14.789Z,55.86
2023-04-18T16:41:17.946Z,58.32
2023-04-18T16:46:21.209Z,59.96
2023-04-18T16:51:24.278Z,61.88
2023-04-18T16:56:29.332Z,66.71
2023-04-18T17:01:33.621Z,61.10
2023-04-18T17:06:36.971Z,51.58
2023-04-18T17:11:41.324Z,53.04
2023-04-18T17:16:44.827Z,56.85
2023-04-18T17:21:49.279Z,59.44
2023-04-18T17:26:52.354Z,60.95
2023-04-18T17:31:55.586Z,65.47
2023-04-18T17:36:58.667Z,58.71
2023-04-18T17:42:02.382Z,53.86
2023-04-18T17:47:10.197Z,56.20
2023-04-18T17:52:13.608Z,60.49
2023-04-18T17:57:16.828Z,66.95
2023-04-18T18:02:20.798Z,56.23
2023-04-18T18:07:24.115Z,56.17
2023-04-18T18:12:27.375Z,58.89
2023-04-18T18:17:32.156Z,61.20
2023-04-18T18:22:35.941Z,64.81
2023-04-18T18:27:42.931Z,56.78
2023-04-18T18:32:46.512Z,56.54
2023-04-18T18:37:53.826Z,59.38
2023-04-18T18:42:57.711Z,62.31
2023-04-18T18:48:01.478Z,66.55
2023-04-18T18:53:06.360Z,57.44
2023-04-18T18:58:12.225Z,53.10
2023-04-18T19:03:19.480Z,54.77
2023-04-18T19:08:22.945Z,56.90
2023-04-18T19:13:26.599Z,59.33
2023-04-18T19:18:29.869Z,61.06
2023-04-18T19:23:33.188Z,61.10
2023-04-18T19:28:36.502Z,68.40
2023-04-18T19:33:40.136Z,64.94
2023-04-18T19:38:43.438Z,53.21
2023-04-18T19:43:46.944Z,52.99
2023-04-18T19:48:50.046Z,54.19
2023-04-18T19:53:55.307Z,56.84
2023-04-18T19:58:58.747Z,58.88
2023-04-18T20:04:02.433Z,59.52
2023-04-18T20:09:05.987Z,59.86
2023-04-18T20:14:12.636Z,59.48
2023-04-18T20:19:16.259Z,59.78
2023-04-18T20:24:21.325Z,64.77
2023-04-18T20:29:24.523Z,68.45
2023-04-18T20:34:27.847Z,55.11
2023-04-18T20:39:30.941Z,53.19
2023-04-18T20:44:35.019Z,55.86
2023-04-18T20:49:38.593Z,58.25
2023-04-18T20:54:41.993Z,60.04
2023-04-18T20:59:45.203Z,64.31
2023-04-18T21:04:49.000Z,67.05
2023-04-18T21:09:52.236Z,52.60
2023-04-18T21:14:55.347Z,52.28
2023-04-18T21:19:58.556Z,56.12
2023-04-18T21:25:01.775Z,58.30
2023-04-18T21:30:06.426Z,59.39
2023-04-18T21:35:10.431Z,60.65
2023-04-18T21:40:13.745Z,68.58
2023-04-18T21:45:18.126Z,67.22
2023-04-18T21:50:21.593Z,52.80
2023-04-18T21:55:24.696Z,52.92
2023-04-18T22:00:28.021Z,56.86
2023-04-18T22:05:33.512Z,59.26
2023-04-18T22:10:36.744Z,61.17
2023-04-18T22:15:39.993Z,68.43
2023-04-18T22:20:43.350Z,64.04
2023-04-18T22:25:46.413Z,54.71
2023-04-18T22:30:51.649Z,53.72
2023-04-18T22:35:55.803Z,55.36
2023-04-18T22:41:01.890Z,57.22
2023-04-18T22:46:05.524Z,60.38
2023-04-18T22:51:08.600Z,68.73
2023-04-18T22:56:11.650Z,66.63
2023-04-18T23:01:14.738Z,56.31
2023-04-18T23:06:17.943Z,54.86
2023-04-18T23:11:21.847Z,59.10
2023-04-18T23:16:25.001Z,65.93
2023-04-18T23:21:28.401Z,64.44
2023-04-18T23:26:31.480Z,55.43
2023-04-18T23:31:34.909Z,55.45
2023-04-18T23:36:38.207Z,59.48
2023-04-18T23:41:41.203Z,66.94
2023-04-18T23:46:44.282Z,65.03
2023-04-18T23:51:47.617Z,55.41
2023-04-18T23:56:50.943Z,54.38
